Time;durP1;ratioP1;P1;durP2;ratioP2;P2;SDS_P1;SDS_P2;PMS_P1;PMS_P2;Temp;Humidity;BMP_temperature;BMP_pressure;BME280_temperature;BME280_humidity;BME280_pressure;Samples;Min_cycle;Max_cycle;Signal;HPM_P1;HPM_P2
2023/03/21 00:00:41;;;;;;;5.38;3.70;;;7.20;99.90;;;;;;4975492;28;20073;-79
2023/03/21 00:03:07;;;;;;;4.35;3.70;;;7.20;99.90;;;;;;4980229;28;20043;-79
2023/03/21 00:05:33;;;;;;;5.82;3.92;;;7.30;99.90;;;;;;4979425;28;20133;-79
2023/03/21 00:07:59;;;;;;;4.90;4.07;;;7.30;99.90;;;;;;4978605;28;20057;-79
2023/03/21 00:10:24;;;;;;;3.38;3.08;;;7.30;99.90;;;;;;4981139;28;20042;-79
2023/03/21 00:12:54;;;;;;;3.65;3.28;;;7.30;99.90;;;;;;4984320;28;20030;-79
2023/03/21 00:15:20;;;;;;;5.60;3.40;;;7.30;99.90;;;;;;4982700;28;20094;-79
2023/03/21 00:17:49;;;;;;;6.50;3.38;;;7.40;99.90;;;;;;4988762;28;20044;-79
2023/03/21 00:20:15;;;;;;;6.03;3.15;;;7.40;99.90;;;;;;4984849;28;20485;-79
2023/03/21 00:22:41;;;;;;;5.47;3.45;;;7.40;99.90;;;;;;4982573;28;20050;-79
2023/03/21 00:25:09;;;;;;;4.18;3.20;;;7.30;99.90;;;;;;4976633;28;20057;-79
2023/03/21 00:27:35;;;;;;;3.75;2.97;;;7.40;99.90;;;;;;4984386;28;20046;-79
2023/03/21 00:30:02;;;;;;;4.82;3.50;;;7.40;99.90;;;;;;4978874;28;20057;-79
2023/03/21 00:32:27;;;;;;;4.35;3.00;;;7.40;99.90;;;;;;4978349;28;20047;-79
2023/03/21 00:34:53;;;;;;;3.97;3.50;;;7.30;99.90;;;;;;4981232;28;20038;-79
2023/03/21 00:37:18;;;;;;;4.72;2.92;;;7.30;99.90;;;;;;4982549;28;20039;-79
2023/03/21 00:39:48;;;;;;;3.35;3.05;;;7.30;99.90;;;;;;4978321;28;20047;-79
2023/03/21 00:42:17;;;;;;;3.38;2.92;;;7.30;99.90;;;;;;4980683;28;20027;-79
2023/03/21 00:44:43;;;;;;;5.55;3.95;;;7.20;99.90;;;;;;4977283;28;20018;-79
2023/03/21 00:47:10;;;;;;;5.38;3.45;;;7.00;99.90;;;;;;4978642;28;20077;-79
2023/03/21 00:49:37;;;;;;;3.50;2.72;;;7.10;99.90;;;;;;4982685;28;20046;-80
2023/03/21 00:52:07;;;;;;;3.53;3.00;;;7.10;99.90;;;;;;4982029;28;20031;-79
2023/03/21 00:54:34;;;;;;;2.80;2.58;;;7.20;99.90;;;;;;4980752;28;20395;-79
2023/03/21 00:57:01;;;;;;;2.90;2.70;;;7.20;99.90;;;;;;4979610;28;20576;-79
2023/03/21 00:59:27;;;;;;;4.05;2.97;;;7.20;99.90;;;;;;4981935;28;20336;-79
2023/03/21 01:01:53;;;;;;;5.20;3.10;;;7.10;99.90;;;;;;4979934;28;20070;-79
2023/03/21 01:04:20;;;;;;;3.03;2.72;;;7.10;99.90;;;;;;4978304;28;20599;-80
2023/03/21 01:06:46;;;;;;;5.72;2.83;;;7.10;99.90;;;;;;4978295;28;20133;-79
2023/03/21 01:09:17;;;;;;;4.18;2.50;;;7.10;99.90;;;;;;4977343;28;20414;-79
2023/03/21 01:11:43;;;;;;;4.70;2.63;;;7.00;99.90;;;;;;4985350;28;20031;-79
2023/03/21 01:14:10;;;;;;;2.92;2.60;;;7.10;99.90;;;;;;4978875;28;20165;-79
2023/03/21 01:16:36;;;;;;;2.95;2.65;;;7.00;99.90;;;;;;4976215;28;20139;-79
2023/03/21 01:19:03;;;;;;;3.00;2.75;;;6.90;99.90;;;;;;4980005;28;20052;-79
2023/03/21 01:21:29;;;;;;;2.90;2.60;;;6.90;99.90;;;;;;4980348;28;20027;-79
2023/03/21 01:23:54;;;;;;;3.90;2.72;;;7.00;99.90;;;;;;4980467;28;22134;-79
2023/03/21 01:26:20;;;;;;;3.05;2.75;;;6.90;99.90;;;;;;4982213;28;20027;-79
2023/03/21 01:28:46;;;;;;;4.15;2.58;;;6.90;99.90;;;;;;4979543;28;20042;-79
2023/03/21 01:31:14;;;;;;;2.40;2.20;;;7.00;99.90;;;;;;4977456;28;20039;-78
2023/03/21 01:33:40;;;;;;;3.15;2.53;;;7.00;99.90;;;;;;4982566;28;20035;-79
2023/03/21 01:36:07;;;;;;;3.38;2.60;;;7.00;99.90;;;;;;4975076;28;20047;-79
2023/03/21 01:38:33;;;;;;;4.60;2.88;;;7.10;99.90;;;;;;4982380;28;20042;-79
2023/03/21 01:41:03;;;;;;;3.60;2.30;;;7.00;99.90;;;;;;4979988;28;20094;-79
2023/03/21 01:43:31;;;;;;;2.20;2.00;;;7.00;99.90;;;;;;4979178;28;20030;-79
2023/03/21 01:45:57;;;;;;;;;;;6.90;99.90;;;;;;4975387;28;20061;-79
2023/03/21 01:48:24;;;;;;;3.72;2.50;;;7.00;99.90;;;;;;4981325;28;19917;-79
2023/03/21 01:50:51;;;;;;;2.28;2.15;;;7.00;99.90;;;;;;4980189;28;20034;-79
2023/03/21 01:53:19;;;;;;;2.10;1.95;;;7.00;99.90;;;;;;4980340;28;20389;-79
2023/03/21 01:55:46;;;;;;;2.30;2.10;;;7.00;99.90;;;;;;4979204;28;20471;-79
2023/03/21 01:58:17;;;;;;;2.20;2.00;;;7.10;99.90;;;;;;4976604;28;20037;-79
2023/03/21 02:00:45;;;;;;;2.95;2.50;;;7.10;99.90;;;;;;4977254;28;20039;-74
2023/03/21 02:03:15;;;;;;;2.25;2.05;;;7.10;99.90;;;;;;4985373;28;20064;-74
2023/03/21 02:06:20;;;;;;;2.38;2.13;;;7.10;99.90;;;;;;4982480;28;20447;-74
2023/03/21 02:08:47;;;;;;;3.20;2.17;;;7.10;99.90;;;;;;4973635;28;20051;-74
2023/03/21 02:11:13;;;;;;;2.45;2.20;;;7.20;99.90;;;;;;4984409;28;20050;-74
2023/03/21 02:13:39;;;;;;;2.58;2.22;;;7.20;99.90;;;;;;4984275;28;20038;-74
2023/03/21 02:16:37;;;;;;;2.38;2.17;;;7.20;99.90;;;;;;4985194;28;20035;-74
2023/03/21 02:19:18;;;;;;;2.70;2.05;;;7.20;99.90;;;;;;4979995;28;20046;-74
2023/03/21 02:22:15;;;;;;;2.35;2.15;;;7.20;99.90;;;;;;4979576;28;20135;-75
2023/03/21 02:25:01;;;;;;;2.35;2.17;;;7.10;99.90;;;;;;4968468;28;20050;-74
2023/03/21 02:27:30;;;;;;;2.80;2.33;;;7.10;99.90;;;;;;4975370;28;20061;-74
2023/03/21 02:30:09;;;;;;;2.50;2.25;;;7.10;99.90;;;;;;4973580;28;20463;-74
2023/03/21 02:32:59;;;;;;;4.93;2.38;;;7.20;99.90;;;;;;4972375;28;20589;-74
2023/03/21 02:35:51;;;;;;;3.63;2.70;;;7.20;99.90;;;;;;4979590;28;20113;-73
2023/03/21 02:38:31;;;;;;;2.80;2.60;;;7.20;99.90;;;;;;4978134;28;20124;-75
2023/03/21 02:41:20;;;;;;;6.40;2.60;;;7.20;99.90;;;;;;5001981;28;20042;-74
2023/03/21 02:44:21;;;;;;;2.85;2.55;;;7.20;99.90;;;;;;4979113;28;20039;-74
2023/03/21 02:46:55;;;;;;;3.00;2.70;;;7.20;99.90;;;;;;4969028;28;20121;-74
2023/03/21 02:49:26;;;;;;;6.93;3.22;;;7.20;99.90;;;;;;4980567;28;20038;-74
2023/03/21 02:51:55;;;;;;;3.63;2.85;;;7.20;99.90;;;;;;4978747;28;20042;-75
2023/03/21 02:54:23;;;;;;;3.58;2.90;;;7.20;99.90;;;;;;4981120;28;20039;-74
2023/03/21 02:56:51;;;;;;;4.18;2.97;;;7.20;99.90;;;;;;4979052;28;20043;-73
2023/03/21 02:59:18;;;;;;;3.20;2.60;;;7.20;99.90;;;;;;4979929;28;20070;-74
2023/03/21 03:01:44;;;;;;;3.70;2.45;;;7.20;99.90;;;;;;4989707;28;20062;-74
2023/03/21 03:04:21;;;;;;;2.90;2.45;;;7.20;99.90;;;;;;4996682;28;20451;-75
2023/03/21 03:07:11;;;;;;;4.90;3.22;;;7.20;99.90;;;;;;4995639;28;20034;-74
2023/03/21 03:09:50;;;;;;;3.70;2.75;;;7.30;99.90;;;;;;5000781;28;20114;-75
2023/03/21 03:12:39;;;;;;;3.45;2.53;;;7.20;99.90;;;;;;5004228;28;20034;-75
2023/03/21 03:15:22;;;;;;;3.45;2.78;;;7.30;99.90;;;;;;4997594;28;20035;-75
2023/03/21 03:18:19;;;;;;;3.35;2.80;;;7.30;99.90;;;;;;4993721;28;20046;-74
2023/03/21 03:20:57;;;;;;;3.35;2.70;;;7.10;99.90;;;;;;4995684;28;20033;-75
2023/03/21 03:23:22;;;;;;;;;;;7.10;99.90;;;;;;4999510;28;20037;-75
2023/03/21 03:26:11;;;;;;;4.28;2.60;;;7.20;99.90;;;;;;5000043;28;19913;-74
2023/03/21 03:28:40;;;;;;;2.63;2.35;;;7.20;99.90;;;;;;4997884;28;20057;-73
2023/03/21 03:31:07;;;;;;;2.95;2.65;;;7.20;99.90;;;;;;4988956;28;20704;-74
2023/03/21 03:33:35;;;;;;;3.70;3.28;;;7.20;99.90;;;;;;4976524;28;20020;-74
2023/03/21 03:36:01;;;;;;;;;;;7.00;99.90;;;;;;4975967;28;20066;-74
2023/03/21 03:38:28;;;;;;;3.58;2.67;;;6.90;99.90;;;;;;4976109;28;19918;-74
2023/03/21 03:41:02;;;;;;;2.65;2.40;;;6.80;99.90;;;;;;4975997;28;20042;-74
2023/03/21 03:43:38;;;;;;;4.65;2.80;;;6.90;99.90;;;;;;4975911;28;20031;-75
2023/03/21 03:46:17;;;;;;;3.80;2.60;;;6.80;99.90;;;;;;4974532;28;20078;-74
2023/03/21 03:48:55;;;;;;;3.22;2.72;;;6.80;99.90;;;;;;4972690;28;20026;-74
2023/03/21 03:51:42;;;;;;;3.85;2.53;;;6.80;99.90;;;;;;4984380;28;20026;-74
2023/03/21 03:54:13;;;;;;;2.88;2.53;;;6.80;99.90;;;;;;4979304;28;20039;-75
2023/03/21 03:56:39;;;;;;;4.15;2.92;;;6.90;99.90;;;;;;4974295;28;20054;-74
2023/03/21 03:59:06;;;;;;;3.70;2.70;;;6.80;99.90;;;;;;4974971;28;20090;-74
2023/03/21 04:01:33;;;;;;;3.65;3.20;;;6.90;99.90;;;;;;4977515;28;20508;-73
2023/03/21 04:03:59;;;;;;;3.80;2.90;;;6.80;99.90;;;;;;4971733;28;20078;-75
2023/03/21 04:06:27;;;;;;;3.08;2.55;;;6.80;99.90;;;;;;4974649;28;20110;-74
2023/03/21 04:08:56;;;;;;;3.28;2.78;;;6.90;99.90;;;;;;4973387;28;20058;-74
2023/03/21 04:11:22;;;;;;;3.55;3.00;;;6.90;99.90;;;;;;4974633;28;20718;-74
2023/03/21 04:13:48;;;;;;;2.83;2.55;;;6.90;99.90;;;;;;4976941;28;20055;-74
2023/03/21 04:16:13;;;;;;;3.00;2.60;;;6.90;99.90;;;;;;4973249;28;20077;-74
2023/03/21 04:18:40;;;;;;;2.83;2.50;;;6.90;99.90;;;;;;4972512;28;20031;-75
2023/03/21 04:21:11;;;;;;;2.78;2.47;;;6.90;99.90;;;;;;4977827;28;20035;-74
2023/03/21 04:23:37;;;;;;;3.67;2.65;;;6.90;99.90;;;;;;4985356;28;20521;-74
2023/03/21 04:26:04;;;;;;;3.45;2.60;;;6.80;99.90;;;;;;4982955;28;20110;-74
2023/03/21 04:28:30;;;;;;;2.75;2.50;;;6.80;99.90;;;;;;4980293;28;20475;-74
2023/03/21 04:30:58;;;;;;;2.97;2.63;;;6.80;99.90;;;;;;4977048;28;20047;-75
2023/03/21 04:33:24;;;;;;;2.47;2.28;;;6.70;99.90;;;;;;4979395;28;20086;-74
2023/03/21 04:36:01;;;;;;;3.30;2.50;;;6.70;99.90;;;;;;4981469;28;20045;-74
2023/03/21 04:38:29;;;;;;;3.22;2.60;;;6.70;99.90;;;;;;4982106;28;20495;-74
2023/03/21 04:40:56;;;;;;;2.75;2.33;;;6.70;99.90;;;;;;4980305;28;20042;-74
2023/03/21 04:43:22;;;;;;;2.67;2.47;;;6.80;99.90;;;;;;4977556;28;20047;-74
2023/03/21 04:45:48;;;;;;;3.08;2.33;;;6.80;99.90;;;;;;4977983;28;20047;-75
2023/03/21 04:48:16;;;;;;;3.00;2.40;;;6.80;99.90;;;;;;4983030;28;20138;-76
2023/03/21 04:50:43;;;;;;;2.30;2.13;;;6.90;99.90;;;;;;4982499;28;20042;-74
2023/03/21 04:53:08;;;;;;;2.92;2.47;;;6.90;99.90;;;;;;4984225;28;20106;-74
2023/03/21 04:55:35;;;;;;;2.55;2.33;;;6.80;99.90;;;;;;4986344;28;20039;-74
2023/03/21 04:58:04;;;;;;;3.63;2.88;;;6.80;99.90;;;;;;4985388;28;20023;-73
2023/03/21 05:00:30;;;;;;;4.40;2.60;;;6.80;99.90;;;;;;4998232;28;20031;-74
2023/03/21 05:02:57;;;;;;;4.13;2.67;;;6.90;99.90;;;;;;4985162;28;20121;-74
2023/03/21 05:05:23;;;;;;;4.03;2.20;;;6.90;99.90;;;;;;4982061;28;20051;-74
2023/03/21 05:07:49;;;;;;;5.07;2.25;;;6.90;99.90;;;;;;4976601;28;20038;-74
2023/03/21 05:10:15;;;;;;;2.90;2.38;;;6.90;99.90;;;;;;4983258;28;20046;-75
2023/03/21 05:12:41;;;;;;;2.83;2.55;;;6.90;99.90;;;;;;4983067;28;20034;-75
2023/03/21 05:15:07;;;;;;;3.67;2.58;;;6.90;99.90;;;;;;4977075;28;20051;-75
2023/03/21 05:17:33;;;;;;;2.75;2.42;;;6.90;99.90;;;;;;4981869;28;20679;-74
2023/03/21 05:19:59;;;;;;;2.33;2.13;;;6.90;99.90;;;;;;4977624;28;20035;-73
2023/03/21 05:22:27;;;;;;;4.28;2.47;;;6.90;99.90;;;;;;4973912;28;20043;-76
2023/03/21 05:24:54;;;;;;;2.50;2.30;;;6.80;99.90;;;;;;4976121;28;20086;-73
2023/03/21 05:27:33;;;;;;;2.85;2.53;;;6.80;99.90;;;;;;4976175;28;20086;-75
2023/03/21 05:30:11;;;;;;;4.85;2.50;;;6.80;99.90;;;;;;4972111;28;20093;-75
2023/03/21 05:32:36;;;;;;;3.90;2.45;;;6.70;99.90;;;;;;4979630;28;20043;-73
2023/03/21 05:35:02;;;;;;;3.30;2.45;;;6.70;99.90;;;;;;4983519;28;20042;-74
2023/03/21 05:37:28;;;;;;;3.80;2.42;;;6.70;99.90;;;;;;4976200;28;20043;-74
2023/03/21 05:39:54;;;;;;;3.10;2.63;;;6.70;99.90;;;;;;4977690;28;20033;-74
2023/03/21 05:42:19;;;;;;;4.80;2.72;;;6.70;99.90;;;;;;4975882;28;20034;-74
2023/03/21 05:44:45;;;;;;;2.92;2.47;;;6.60;99.90;;;;;;4972745;28;20050;-74
2023/03/21 05:47:12;;;;;;;3.75;2.35;;;6.60;99.90;;;;;;4978213;28;20045;-74
2023/03/21 05:49:38;;;;;;;5.40;2.65;;;6.60;99.90;;;;;;4973344;28;20042;-74
2023/03/21 05:52:03;;;;;;;3.40;2.72;;;6.60;99.90;;;;;;4981023;28;20031;-74
2023/03/21 05:54:29;;;;;;;4.60;2.65;;;6.60;99.90;;;;;;4982952;28;20117;-74
2023/03/21 05:56:55;;;;;;;5.47;2.63;;;6.60;99.90;;;;;;4981057;28;20030;-74
2023/03/21 05:59:20;;;;;;;5.40;2.70;;;6.60;99.90;;;;;;4983137;28;20029;-74
2023/03/21 06:01:46;;;;;;;4.97;2.88;;;6.60;99.90;;;;;;4987922;28;20521;-74
2023/03/21 06:04:12;;;;;;;3.72;3.10;;;6.70;99.90;;;;;;4980157;28;20083;-74
2023/03/21 06:06:37;;;;;;;3.13;2.83;;;6.70;99.90;;;;;;4980949;28;20388;-74
2023/03/21 06:09:03;;;;;;;2.92;2.70;;;6.80;99.90;;;;;;5001177;28;20053;-75
2023/03/21 06:11:31;;;;;;;6.05;3.08;;;6.80;99.90;;;;;;4981657;28;20063;-74
2023/03/21 06:13:57;;;;;;;4.88;2.72;;;6.80;99.90;;;;;;4979820;28;20038;-74
2023/03/21 06:16:23;;;;;;;3.72;2.85;;;6.90;99.90;;;;;;4982307;28;20483;-75
2023/03/21 06:18:48;;;;;;;4.65;2.60;;;6.90;99.90;;;;;;4985308;28;20042;-74
2023/03/21 06:21:14;;;;;;;2.80;2.58;;;6.90;99.90;;;;;;4980293;28;20043;-74
2023/03/21 06:23:39;;;;;;;4.18;3.03;;;7.00;99.90;;;;;;4987132;28;20086;-74
2023/03/21 06:26:06;;;;;;;4.70;3.15;;;7.00;99.90;;;;;;4978476;28;20034;-75
2023/03/21 06:28:31;;;;;;;3.40;2.50;;;7.10;99.90;;;;;;4980425;28;20608;-74
2023/03/21 06:30:57;;;;;;;5.47;3.17;;;7.10;99.90;;;;;;4979363;28;20068;-74
2023/03/21 06:33:23;;;;;;;2.97;2.50;;;7.10;99.90;;;;;;4983299;28;20034;-74
2023/03/21 06:35:54;;;;;;;3.08;2.63;;;7.20;99.90;;;;;;4998341;28;20090;-74
2023/03/21 06:38:19;;;;;;;4.43;2.55;;;7.10;99.90;;;;;;4984087;28;20046;-74
2023/03/21 06:40:46;;;;;;;3.45;2.75;;;7.10;99.90;;;;;;4979463;28;20842;-74
2023/03/21 06:43:13;;;;;;;4.20;2.58;;;7.10;99.90;;;;;;4979940;28;20034;-74
2023/03/21 06:45:38;;;;;;;3.03;2.72;;;7.10;99.90;;;;;;4977044;28;20058;-75
2023/03/21 06:48:04;;;;;;;5.85;3.38;;;7.20;99.90;;;;;;4979872;28;20042;-74
2023/03/21 06:50:30;;;;;;;3.60;2.95;;;7.20;99.90;;;;;;4981161;28;20468;-74
2023/03/21 06:52:58;;;;;;;3.35;2.97;;;7.30;99.90;;;;;;4978604;28;20585;-75
2023/03/21 06:55:25;;;;;;;4.03;2.80;;;7.40;99.90;;;;;;4974511;28;20394;-75
2023/03/21 06:57:52;;;;;;;5.53;3.13;;;7.30;99.90;;;;;;4973815;28;20073;-74
2023/03/21 07:00:18;;;;;;;3.42;2.85;;;7.40;99.90;;;;;;4974731;28;20667;-75
2023/03/21 07:02:45;;;;;;;2.63;2.38;;;7.50;99.90;;;;;;4973376;28;20501;-75
2023/03/21 07:05:11;;;;;;;3.08;2.75;;;7.50;99.90;;;;;;4971446;28;20411;-76
2023/03/21 07:07:36;;;;;;;6.32;3.05;;;7.60;99.90;;;;;;4968344;28;20097;-74
2023/03/21 07:10:03;;;;;;;4.43;3.25;;;7.60;99.90;;;;;;4968841;28;20140;-74
2023/03/21 07:12:32;;;;;;;3.97;2.95;;;7.70;99.90;;;;;;4966757;28;20038;-75
2023/03/21 07:14:58;;;;;;;4.90;2.80;;;7.80;99.90;;;;;;4973248;28;20039;-74
2023/03/21 07:17:24;;;;;;;6.35;3.20;;;7.80;99.90;;;;;;4971763;28;20030;-74
2023/03/21 07:19:50;;;;;;;6.53;3.60;;;7.90;99.90;;;;;;4968615;28;20067;-73
2023/03/21 07:22:16;;;;;;;7.20;3.97;;;8.00;99.90;;;;;;4973316;28;20035;-75
2023/03/21 07:24:41;;;;;;;8.73;4.28;;;8.00;99.90;;;;;;4972252;28;20042;-75
2023/03/21 07:27:07;;;;;;;4.43;3.78;;;8.10;99.90;;;;;;4973248;28;20049;-73
2023/03/21 07:29:32;;;;;;;6.45;3.88;;;8.20;99.90;;;;;;4971866;28;20126;-74
2023/03/21 07:31:58;;;;;;;6.50;3.88;;;8.20;99.90;;;;;;4971302;28;20043;-73
2023/03/21 07:34:26;;;;;;;7.07;3.78;;;8.20;99.90;;;;;;4970921;28;20069;-73
2023/03/21 07:36:51;;;;;;;5.82;3.70;;;8.30;99.90;;;;;;4967333;28;20043;-73
2023/03/21 07:39:19;;;;;;;4.45;3.33;;;8.30;99.90;;;;;;4967397;28;20042;-73
2023/03/21 07:41:44;;;;;;;4.23;2.73;;;8.40;99.90;;;;;;4969666;28;20039;-73
2023/03/21 07:44:10;;;;;;;4.07;3.17;;;8.40;99.90;;;;;;4971745;28;21024;-73
2023/03/21 07:46:36;;;;;;;5.85;4.10;;;8.40;99.90;;;;;;4970863;28;20042;-73
2023/03/21 07:49:01;;;;;;;4.82;3.35;;;8.50;99.90;;;;;;4969647;28;20047;-74
2023/03/21 07:51:27;;;;;;;6.40;3.85;;;8.50;99.90;;;;;;4969793;28;20181;-75
2023/03/21 07:53:52;;;;;;;5.00;3.45;;;8.50;99.90;;;;;;4971554;28;20069;-73
2023/03/21 07:56:18;;;;;;;5.40;3.88;;;8.50;99.90;;;;;;4971897;28;20041;-73
2023/03/21 07:58:43;;;;;;;4.35;3.58;;;8.60;99.90;;;;;;4970549;28;20046;-75
2023/03/21 08:01:09;;;;;;;5.85;3.53;;;8.60;99.90;;;;;;4972178;28;20046;-73
2023/03/21 08:03:35;;;;;;;4.57;3.40;;;8.70;99.90;;;;;;4974159;28;21619;-73
2023/03/21 08:06:00;;;;;;;6.90;4.10;;;8.80;99.90;;;;;;4970811;28;20038;-73
2023/03/21 08:08:26;;;;;;;5.28;4.07;;;8.80;99.90;;;;;;4973101;28;20069;-74
2023/03/21 08:10:52;;;;;;;7.25;3.65;;;8.90;99.90;;;;;;4970476;28;20081;-73
2023/03/21 08:13:17;;;;;;;4.43;3.13;;;8.90;99.90;;;;;;4974425;28;20430;-74
2023/03/21 08:15:43;;;;;;;5.15;3.55;;;9.10;99.90;;;;;;4975650;28;20035;-73
2023/03/21 08:18:09;;;;;;;7.32;3.85;;;9.10;99.90;;;;;;4975735;28;20042;-74
2023/03/21 08:20:35;;;;;;;5.07;3.50;;;9.10;99.90;;;;;;4977388;28;20036;-74
2023/03/21 08:23:00;;;;;;;3.78;3.20;;;9.20;99.90;;;;;;4972265;28;20113;-74
2023/03/21 08:25:26;;;;;;;4.32;3.55;;;9.30;99.90;;;;;;4973730;28;20091;-74
2023/03/21 08:27:52;;;;;;;4.95;3.38;;;9.40;99.90;;;;;;4973839;28;20030;-74
2023/03/21 08:30:21;;;;;;;5.00;3.25;;;9.40;99.90;;;;;;4976307;28;20030;-74
2023/03/21 08:32:47;;;;;;;5.13;3.22;;;9.50;99.90;;;;;;4973664;28;20047;-74
2023/03/21 08:35:15;;;;;;;5.97;3.50;;;9.60;99.90;;;;;;4976528;28;20045;-74
2023/03/21 08:37:41;;;;;;;4.45;3.28;;;9.70;99.90;;;;;;4974195;28;20038;-74
2023/03/21 08:40:12;;;;;;;6.80;3.65;;;9.80;99.90;;;;;;4977972;28;20082;-74
2023/03/21 08:42:41;;;;;;;4.55;3.38;;;9.90;99.90;;;;;;4972318;28;20136;-74
2023/03/21 08:45:08;;;;;;;4.65;3.60;;;9.90;99.90;;;;;;4974932;28;20038;-73
2023/03/21 08:47:34;;;;;;;3.88;3.35;;;10.10;99.90;;;;;;4975711;28;20039;-74
2023/03/21 08:50:00;;;;;;;6.03;3.05;;;10.20;99.90;;;;;;4976213;28;20031;-74
2023/03/21 08:52:26;;;;;;;5.05;2.95;;;10.20;99.90;;;;;;4976174;28;20034;-74
2023/03/21 08:54:53;;;;;;;4.07;3.20;;;10.20;99.90;;;;;;4974862;28;20035;-74
2023/03/21 08:57:19;;;;;;;3.63;2.95;;;10.30;99.90;;;;;;4975432;28;20057;-74
2023/03/21 08:59:44;;;;;;;3.67;2.90;;;10.30;99.90;;;;;;4971334;28;20037;-74
2023/03/21 09:02:14;;;;;;;4.35;2.80;;;10.30;99.90;;;;;;4968349;28;20042;-74
2023/03/21 09:04:40;;;;;;;3.95;2.80;;;10.50;99.90;;;;;;4975795;28;20073;-73
2023/03/21 09:07:05;;;;;;;2.92;2.63;;;10.60;99.90;;;;;;4977176;28;20143;-73
2023/03/21 09:09:31;;;;;;;4.03;2.75;;;10.50;99.90;;;;;;4974382;28;20050;-74
2023/03/21 09:11:57;;;;;;;4.22;2.83;;;10.70;99.90;;;;;;4988499;28;20122;-74
2023/03/21 09:14:23;;;;;;;5.22;2.67;;;10.90;99.90;;;;;;4974111;28;20034;-74
2023/03/21 09:16:49;;;;;;;4.03;2.60;;;11.10;99.90;;;;;;4979981;28;20053;-74
2023/03/21 09:19:16;;;;;;;3.03;2.58;;;11.10;99.90;;;;;;4976347;28;20026;-73
2023/03/21 09:21:42;;;;;;;4.25;2.63;;;11.20;99.90;;;;;;4981376;28;20034;-74
2023/03/21 09:24:08;;;;;;;4.72;2.85;;;11.30;99.90;;;;;;4972696;28;20105;-74
2023/03/21 09:26:34;;;;;;;3.40;2.45;;;11.50;99.90;;;;;;4975197;28;20474;-74
2023/03/21 09:29:03;;;;;;;3.88;2.03;;;11.50;99.90;;;;;;4977584;28;20125;-75
2023/03/21 09:31:29;;;;;;;4.03;2.40;;;11.40;99.90;;;;;;4973725;28;20066;-74
2023/03/21 09:33:56;;;;;;;3.53;2.65;;;11.50;99.90;;;;;;4977005;28;20026;-75
2023/03/21 09:36:23;;;;;;;2.38;2.17;;;11.70;99.90;;;;;;4978018;28;20114;-74
2023/03/21 09:38:49;;;;;;;2.40;2.20;;;11.80;99.90;;;;;;4977549;28;20393;-74
2023/03/21 09:41:48;;;;;;;3.03;2.58;;;11.90;99.90;;;;;;4974217;28;20113;-74
2023/03/21 09:44:33;;;;;;;2.13;1.88;;;12.00;99.90;;;;;;4972160;28;20030;-74
2023/03/21 09:47:18;;;;;;;3.67;3.08;;;12.20;99.90;;;;;;4981663;28;20039;-75
2023/03/21 09:49:49;;;;;;;4.03;2.63;;;12.30;99.90;;;;;;4979525;28;20035;-75
2023/03/21 09:52:35;;;;;;;2.47;2.22;;;12.40;99.90;;;;;;4974943;28;20028;-75
2023/03/21 09:55:17;;;;;;;6.05;2.67;;;12.50;99.90;;;;;;4983771;28;20026;-75
2023/03/21 09:57:46;;;;;;;2.78;2.40;;;12.50;99.90;;;;;;4979605;28;20066;-75
2023/03/21 10:00:26;;;;;;;2.90;2.60;;;12.40;99.90;;;;;;4980843;28;20026;-75
2023/03/21 10:02:58;;;;;;;3.10;2.25;;;12.10;99.90;;;;;;4981275;28;20046;-75
2023/03/21 10:05:27;;;;;;;2.45;2.25;;;11.90;99.90;;;;;;4981433;28;20039;-75
2023/03/21 10:08:07;;;;;;;3.10;2.50;;;11.90;99.90;;;;;;4982817;28;20369;-75
2023/03/21 10:10:55;;;;;;;3.22;2.50;;;11.90;99.90;;;;;;4981470;28;20047;-76
2023/03/21 10:13:28;;;;;;;2.90;2.63;;;12.00;99.90;;;;;;4983336;28;20081;-75
2023/03/21 10:16:00;;;;;;;2.78;2.58;;;12.00;99.90;;;;;;4975973;28;20051;-75
2023/03/21 10:18:30;;;;;;;4.45;2.80;;;12.20;99.90;;;;;;4980697;28;20034;-75
2023/03/21 10:20:56;;;;;;;6.25;5.63;;;12.40;99.90;;;;;;4979978;28;20485;-75
2023/03/21 10:23:27;;;;;;;3.22;2.58;;;12.50;99.90;;;;;;4982012;28;20131;-75
2023/03/21 10:25:57;;;;;;;3.72;3.33;;;12.60;99.90;;;;;;4979696;28;20022;-74
2023/03/21 10:28:31;;;;;;;4.78;2.63;;;12.70;99.90;;;;;;4978711;28;20058;-74
2023/03/21 10:31:06;;;;;;;4.18;2.88;;;12.90;99.90;;;;;;4976810;28;20046;-75
2023/03/21 10:33:36;;;;;;;3.58;2.85;;;13.10;99.90;;;;;;4986720;28;20558;-75
2023/03/21 10:36:06;;;;;;;3.05;2.70;;;13.30;99.90;;;;;;4978790;28;20034;-75
2023/03/21 10:38:34;;;;;;;3.30;2.63;;;13.50;99.90;;;;;;4974553;28;20027;-75
2023/03/21 10:40:59;;;;;;;3.30;2.72;;;13.70;99.90;;;;;;4979426;28;20077;-75
2023/03/21 10:43:25;;;;;;;3.17;2.63;;;13.80;99.90;;;;;;4981322;28;20039;-75
2023/03/21 10:45:52;;;;;;;4.53;2.83;;;13.80;99.90;;;;;;4983928;28;20038;-75
2023/03/21 10:48:17;;;;;;;2.92;2.60;;;13.80;97.40;;;;;;4990059;28;20193;-75
2023/03/21 10:50:47;;;;;;;4.63;2.58;;;13.70;99.90;;;;;;4988644;28;20052;-75
2023/03/21 10:53:28;;;;;;;4.03;2.90;;;13.70;97.00;;;;;;4981616;28;20045;-75
2023/03/21 10:55:58;;;;;;;2.85;2.50;;;13.70;99.00;;;;;;4978865;28;20153;-75
2023/03/21 10:58:32;;;;;;;2.83;2.60;;;13.90;99.90;;;;;;4979459;28;20034;-75
2023/03/21 11:01:01;;;;;;;2.97;2.53;;;13.90;99.50;;;;;;4984985;28;20377;-75
2023/03/21 11:03:32;;;;;;;4.45;3.00;;;14.00;99.90;;;;;;4997299;28;20034;-76
2023/03/21 11:06:27;;;;;;;2.85;2.42;;;14.10;99.10;;;;;;5002755;28;20030;-74
2023/03/21 11:08:59;;;;;;;5.47;2.55;;;14.40;99.90;;;;;;5005978;28;20033;-75
2023/03/21 11:11:32;;;;;;;3.00;2.20;;;14.40;97.90;;;;;;5000682;28;20092;-75
2023/03/21 11:14:00;;;;;;;3.65;2.47;;;14.20;90.80;;;;;;5003851;28;20072;-75
2023/03/21 11:16:37;;;;;;;2.50;2.30;;;14.00;96.60;;;;;;4997451;28;20035;-75
2023/03/21 11:19:27;;;;;;;3.40;2.53;;;13.80;93.10;;;;;;5004040;28;20053;-75
2023/03/21 11:21:56;;;;;;;2.55;2.20;;;13.90;96.90;;;;;;4998532;28;20081;-75
2023/03/21 11:24:22;;;;;;;3.55;2.55;;;14.00;91.60;;;;;;5002577;28;20038;-75
2023/03/21 11:26:49;;;;;;;3.65;2.58;;;13.90;95.70;;;;;;5002210;28;20043;-75
2023/03/21 11:29:34;;;;;;;2.60;2.38;;;14.10;95.60;;;;;;4999498;28;20026;-74
2023/03/21 11:32:08;;;;;;;3.58;2.70;;;14.30;94.20;;;;;;4990097;28;20127;-75
2023/03/21 11:35:00;;;;;;;2.80;2.60;;;14.40;92.80;;;;;;4978429;28;20127;-75
2023/03/21 11:37:32;;;;;;;4.40;2.72;;;14.50;91.90;;;;;;4985554;28;20063;-75
2023/03/21 11:40:24;;;;;;;2.25;2.05;;;14.60;92.20;;;;;;4987989;28;20053;-74
2023/03/21 11:42:59;;;;;;;3.72;3.05;;;14.70;91.90;;;;;;4980013;28;20041;-75
2023/03/21 11:45:27;;;;;;;3.45;3.03;;;14.80;92.40;;;;;;4981763;28;20054;-75
2023/03/21 11:47:56;;;;;;;3.78;2.65;;;14.70;92.00;;;;;;4986426;28;20034;-74
2023/03/21 11:50:33;;;;;;;;;;;14.80;92.60;;;;;;4982652;28;20105;-75
2023/03/21 11:53:17;;;;;;;3.63;2.72;;;15.10;92.40;;;;;;4999739;28;19922;-74
2023/03/21 11:56:18;;;;;;;2.53;2.33;;;15.30;88.50;;;;;;4979556;28;20029;-75
2023/03/21 11:58:46;;;;;;;2.97;2.30;;;15.00;87.10;;;;;;4982900;28;20035;-75
2023/03/21 12:01:37;;;;;;;3.15;2.65;;;14.90;82.80;;;;;;4978286;28;20090;-75
2023/03/21 12:04:04;;;;;;;2.95;2.38;;;15.00;87.10;;;;;;4985447;28;20066;-76
2023/03/21 12:06:43;;;;;;;4.32;3.72;;;14.70;86.30;;;;;;4982619;28;20035;-75
2023/03/21 12:09:32;;;;;;;4.93;3.30;;;14.80;91.20;;;;;;4983896;28;20122;-75
2023/03/21 12:12:25;;;;;;;3.47;2.97;;;14.90;87.90;;;;;;4984818;28;20033;-75
2023/03/21 12:14:56;;;;;;;2.55;2.30;;;14.40;88.10;;;;;;4983488;28;20027;-74
2023/03/21 12:17:43;;;;;;;5.28;2.83;;;14.60;84.00;;;;;;4984247;28;20101;-75
2023/03/21 12:20:29;;;;;;;4.80;2.83;;;14.70;89.80;;;;;;4983606;28;20058;-75
2023/03/21 12:23:13;;;;;;;3.80;2.88;;;15.10;85.60;;;;;;4984913;28;20046;-75
2023/03/21 12:25:53;;;;;;;3.92;3.30;;;15.20;77.40;;;;;;4984670;28;20427;-75
2023/03/21 12:28:28;;;;;;;3.75;2.78;;;15.30;86.80;;;;;;4986354;28;20026;-75
2023/03/21 12:31:23;;;;;;;4.97;3.08;;;15.40;80.10;;;;;;4987771;28;20409;-75
2023/03/21 12:34:10;;;;;;;3.50;2.55;;;15.40;83.70;;;;;;4965988;28;20141;-75
2023/03/21 12:36:45;;;;;;;3.67;2.95;;;15.40;80.10;;;;;;4985283;28;20034;-75
2023/03/21 12:39:27;;;;;;;3.13;2.80;;;15.10;81.60;;;;;;4983236;28;20042;-76
2023/03/21 12:42:12;;;;;;;3.05;2.75;;;15.00;83.10;;;;;;4985317;28;20031;-76
2023/03/21 12:45:03;;;;;;;4.78;2.92;;;14.90;80.20;;;;;;4986018;28;20038;-75
2023/03/21 12:47:33;;;;;;;3.55;2.90;;;15.10;89.00;;;;;;4979207;28;20039;-75
2023/03/21 12:50:01;;;;;;;3.67;2.67;;;15.40;81.90;;;;;;4984975;28;20042;-75
2023/03/21 12:52:34;;;;;;;4.15;2.70;;;15.30;82.80;;;;;;4985179;28;20027;-75
2023/03/21 12:55:06;;;;;;;3.38;2.85;;;15.50;78.90;;;;;;4984135;28;20391;-75
2023/03/21 12:57:41;;;;;;;3.83;2.80;;;15.50;76.70;;;;;;4987826;28;20101;-79
2023/03/21 13:00:21;;;;;;;4.28;2.78;;;15.40;78.60;;;;;;4989181;28;20031;-79
2023/03/21 13:02:56;;;;;;;4.03;3.30;;;15.40;81.30;;;;;;5009222;28;20045;-79
2023/03/21 13:05:30;;;;;;;3.90;3.15;;;15.50;78.50;;;;;;5003590;28;20084;-78
2023/03/21 13:08:05;;;;;;;6.25;3.03;;;15.60;86.70;;;;;;5005367;28;20385;-79
2023/03/21 13:10:32;;;;;;;3.85;2.95;;;16.00;88.00;;;;;;5017961;28;20425;-79
2023/03/21 13:13:19;;;;;;;3.35;3.03;;;16.20;78.80;;;;;;5000206;28;20027;-79